Time;durP1;ratioP1;P1;durP2;ratioP2;P2;SDS_P1;SDS_P2;PMS_P1;PMS_P2;Temp;Humidity;BMP_temperature;BMP_pressure;BME280_temperature;BME280_humidity;BME280_pressure;Samples;Min_cycle;Max_cycle;Signal;HPM_P1;HPM_P2
2022/09/08 00:01:14;;;;;;;;;;;;;;;21.56;78.85;97217.09;586096;242;65092;-70
2022/09/08 00:03:42;;;;;;;;;;;;;;;21.55;78.81;97216.26;586056;242;66965;-70
2022/09/08 00:06:12;;;;;;;;;;;;;;;21.56;78.83;97222.43;586098;242;64861;-70
2022/09/08 00:08:44;;;;;;;;;;;;;;;21.57;78.84;97221.35;586081;242;65164;-70
2022/09/08 00:11:11;;;;;;;;;;;;;;;21.56;78.83;97222.43;585987;242;64991;-70
2022/09/08 00:13:40;;;;;;;;;;;;;;;21.55;78.80;97224.28;586089;242;66805;-70
2022/09/08 00:16:10;;;;;;;;;;;;;;;21.56;78.80;97219.76;586082;242;65081;-69
2022/09/08 00:18:39;;;;;;;;;;;;;;;21.56;78.83;97222.43;586071;242;66937;-69
2022/09/08 00:21:08;;;;;;;;;;;;;;;21.55;78.84;97218.93;586094;242;66868;-70
2022/09/08 00:23:36;;;;;;;;;;;;;;;21.55;78.81;97224.28;586058;242;65062;-70
2022/09/08 00:26:04;;;;;;;;;;;;;;;21.55;78.84;97220.81;585637;242;67313;-70
2022/09/08 00:28:32;;;;;;;;;;;;;;;21.55;78.80;97218.13;582620;243;65238;-70
2022/09/08 00:31:01;;;;;;;;;;;;;;;21.55;78.84;97226.95;582646;243;63063;-70
2022/09/08 00:33:30;;;;;;;;;;;;;;;21.55;78.83;97228.83;582636;243;67258;-69
2022/09/08 00:35:58;;;;;;;;;;;;;;;21.55;78.83;97226.16;582622;243;67278;-70
2022/09/08 00:38:26;;;;;;;;;;;;;;;21.55;78.81;97229.63;582615;243;65183;-70
2022/09/08 00:40:55;;;;;;;;;;;;;;;21.55;78.80;97223.48;582618;243;67268;-69
2022/09/08 00:43:33;;;;;;;;;;;;;;;21.55;78.84;97234.98;582637;243;67056;-70
2022/09/08 00:46:03;;;;;;;;;;;;;;;21.55;78.80;97226.95;582663;243;65071;-70
2022/09/08 00:48:32;;;;;;;;;;;;;;;21.55;78.79;97226.95;582201;243;66897;-69
2022/09/08 00:51:00;;;;;;;;;;;;;;;21.55;78.79;97223.48;582637;243;66838;-69
2022/09/08 00:53:30;;;;;;;;;;;;;;;21.55;78.75;97228.83;582611;243;65103;-69
2022/09/08 00:55:58;;;;;;;;;;;;;;;21.55;78.72;97229.63;582607;243;67486;-69
2022/09/08 00:58:27;;;;;;;;;;;;;;;21.55;78.71;97239.53;582639;243;67001;-70
2022/09/08 01:00:55;;;;;;;;;;;;;;;21.55;78.71;97234.98;582626;243;63131;-70
2022/09/08 01:03:23;;;;;;;;;;;;;;;21.55;78.76;97236.86;582622;243;67393;-70
2022/09/08 01:05:52;;;;;;;;;;;;;;;21.55;78.76;97239.53;582629;243;64910;-70
2022/09/08 01:14:04;;;;;;;;;;;;;;;21.55;78.75;97236.86;582639;243;67144;-69
2022/09/08 01:16:40;;;;;;;;;;;;;;;21.55;78.79;97229.63;582635;243;64008;-70
2022/09/08 01:19:09;;;;;;;;;;;;;;;21.54;78.84;97228.03;582465;243;67299;-70
2022/09/08 01:21:42;;;;;;;;;;;;;;;21.55;78.91;97226.16;582621;243;67121;-69
2022/09/08 01:24:29;;;;;;;;;;;;;;;21.54;78.91;97227.23;582610;243;63066;-69
2022/09/08 01:27:05;;;;;;;;;;;;;;;21.55;78.95;97220.81;584121;242;67230;-70
2022/09/08 01:29:34;;;;;;;;;;;;;;;21.54;78.93;97225.36;586029;242;67204;-70
2022/09/08 01:32:04;;;;;;;;;;;;;;;21.55;78.91;97223.48;586051;242;65247;-69
2022/09/08 01:34:38;;;;;;;;;;;;;;;21.55;78.94;97224.28;586032;242;65311;-69
2022/09/08 01:37:07;;;;;;;;;;;;;;;21.54;78.89;97221.89;586063;242;66754;-70
2022/09/08 01:39:35;;;;;;;;;;;;;;;21.54;78.90;97221.89;586058;242;65158;-69
2022/09/08 01:42:05;;;;;;;;;;;;;;;21.55;78.92;97228.83;586048;242;67161;-70
2022/09/08 01:44:33;;;;;;;;;;;;;;;21.54;78.91;97221.89;586026;242;67637;-69
2022/09/08 01:47:01;;;;;;;;;;;;;;;21.55;78.92;97220.81;586043;242;65110;-69
2022/09/08 01:49:29;;;;;;;;;;;;;;;21.54;78.94;97213.87;586058;242;67275;-69
2022/09/08 01:51:57;;;;;;;;;;;;;;;21.55;78.97;97212.78;586028;242;67057;-70
2022/09/08 01:54:26;;;;;;;;;;;;;;;21.55;78.96;97212.78;586023;242;65103;-70
2022/09/08 01:56:56;;;;;;;;;;;;;;;21.55;78.93;97202.09;586051;242;65145;-70
2022/09/08 01:59:24;;;;;;;;;;;;;;;21.55;78.89;97202.09;586044;242;65035;-70
2022/09/08 02:01:52;;;;;;;;;;;;;;;21.55;78.89;97202.09;586095;242;66729;-70
2022/09/08 02:04:20;;;;;;;;;;;;;;;21.54;78.88;97206.64;586044;242;64810;-69
2022/09/08 02:06:49;;;;;;;;;;;;;;;21.55;78.89;97204.77;586030;242;67178;-70
2022/09/08 02:09:17;;;;;;;;;;;;;;;21.55;78.88;97196.74;586037;242;65110;-69
2022/09/08 02:11:48;;;;;;;;;;;;;;;21.55;78.84;97213.58;586055;242;65314;-70
2022/09/08 02:14:14;;;;;;;;;;;;;;;21.54;78.81;97201.30;585961;242;65055;-70
2022/09/08 02:16:43;;;;;;;;;;;;;;;21.55;78.84;97196.74;586083;242;62996;-70
2022/09/08 02:19:12;;;;;;;;;;;;;;;21.55;78.86;97188.72;586053;242;67203;-70
2022/09/08 02:21:40;;;;;;;;;;;;;;;21.55;78.83;97191.39;586031;239;67075;-70
2022/09/08 02:24:08;;;;;;;;;;;;;;;21.54;78.85;97195.95;586062;242;63047;-70
2022/09/08 02:26:38;;;;;;;;;;;;;;;21.54;78.80;97193.27;584860;242;67194;-70
2022/09/08 02:29:08;;;;;;;;;;;;;;;21.55;78.74;97191.39;582629;243;64962;-70
2022/09/08 02:31:36;;;;;;;;;;;;;;;21.55;78.69;97191.39;582639;243;65146;-70
2022/09/08 02:34:05;;;;;;;;;;;;;;;21.54;78.68;97187.92;582586;243;65233;-70
2022/09/08 02:36:33;;;;;;;;;;;;;;;21.55;78.68;97191.39;582632;243;65186;-70
2022/09/08 02:39:01;;;;;;;;;;;;;;;21.54;78.69;97189.80;582603;243;65151;-70
2022/09/08 02:41:29;;;;;;;;;;;;;;;21.55;78.68;97191.39;582619;243;67315;-70
2022/09/08 02:43:57;;;;;;;;;;;;;;;21.54;78.70;97193.27;582677;243;66892;-70
2022/09/08 02:46:25;;;;;;;;;;;;;;;21.54;78.72;97195.95;582630;243;63085;-70
2022/09/08 02:48:53;;;;;;;;;;;;;;;21.54;78.78;97189.80;582609;243;67375;-70
2022/09/08 02:51:21;;;;;;;;;;;;;;;21.54;78.79;97192.48;582641;243;64741;-70
2022/09/08 02:53:49;;;;;;;;;;;;;;;21.54;78.71;97195.15;582584;243;63075;-69
2022/09/08 02:56:17;;;;;;;;;;;;;;;21.55;78.74;97202.09;582607;243;67217;-69
2022/09/08 02:58:45;;;;;;;;;;;;;;;21.54;78.77;97198.63;582616;243;67452;-70
2022/09/08 03:01:13;;;;;;;;;;;;;;;21.54;78.77;97195.15;582609;243;65106;-70
2022/09/08 03:03:41;;;;;;;;;;;;;;;21.54;78.75;97197.83;582621;243;67210;-70
2022/09/08 03:06:09;;;;;;;;;;;;;;;21.54;79.79;97200.50;582646;243;65063;-70
2022/09/08 03:08:37;;;;;;;;;;;;;;;21.54;78.75;97203.17;582635;243;66611;-70
2022/09/08 03:11:05;;;;;;;;;;;;;;;21.53;78.75;97189.01;582660;243;67222;-70
2022/09/08 03:13:35;;;;;;;;;;;;;;;21.54;78.81;97190.59;582650;243;64999;-69
2022/09/08 03:16:04;;;;;;;;;;;;;;;21.54;78.75;97187.13;582647;243;63063;-70
2022/09/08 03:18:32;;;;;;;;;;;;;;;21.54;78.70;97184.45;582650;243;66956;-70
2022/09/08 03:21:01;;;;;;;;;;;;;;;21.53;78.69;97186.33;582636;243;67123;-69
2022/09/08 03:23:31;;;;;;;;;;;;;;;21.54;78.68;97195.95;582552;243;65064;-70
2022/09/08 03:26:03;;;;;;;;;;;;;;;21.55;78.69;97196.74;582584;242;67460;-69
2022/09/08 03:28:32;;;;;;;;;;;;;;;21.54;78.74;97187.92;582653;243;65088;-70
2022/09/08 03:31:00;;;;;;;;;;;;;;;21.54;78.72;97189.80;582627;243;63148;-70
2022/09/08 03:33:28;;;;;;;;;;;;;;;21.54;78.77;97189.80;582625;243;67239;-70
2022/09/08 03:35:58;;;;;;;;;;;;;;;21.53;78.79;97194.36;582632;243;67117;-70
2022/09/08 03:38:26;;;;;;;;;;;;;;;21.54;78.85;97197.83;582624;243;65112;-70
2022/09/08 03:40:55;;;;;;;;;;;;;;;21.54;78.82;97197.83;582651;243;67254;-70
2022/09/08 03:43:23;;;;;;;;;;;;;;;21.54;78.81;97189.80;582644;243;64990;-70
2022/09/08 03:45:51;;;;;;;;;;;;;;;21.54;78.78;97195.15;582608;243;63048;-69
2022/09/08 03:48:19;;;;;;;;;;;;;;;21.53;78.77;97198.91;582630;243;67284;-70
2022/09/08 03:50:47;;;;;;;;;;;;;;;21.54;78.75;97200.50;582641;243;67110;-70
2022/09/08 03:53:15;;;;;;;;;;;;;;;21.53;78.77;97197.03;582593;243;65071;-70
2022/09/08 03:55:44;;;;;;;;;;;;;;;21.53;78.82;97204.25;582632;243;65117;-70
2022/09/08 03:58:13;;;;;;;;;;;;;;;21.53;78.81;97209.60;582582;243;67237;-70
2022/09/08 04:00:42;;;;;;;;;;;;;;;21.54;78.79;97211.20;582605;240;65087;-69
2022/09/08 04:03:10;;;;;;;;;;;;;;;21.54;78.84;97208.52;582656;243;67228;-69
2022/09/08 04:05:39;;;;;;;;;;;;;;;21.53;78.83;97204.25;582666;243;64356;-70
2022/09/08 04:08:08;;;;;;;;;;;;;;;21.53;78.82;97205.05;582672;243;63005;-70
2022/09/08 04:10:37;;;;;;;;;;;;;;;21.52;79.45;97208.77;582627;243;67069;-70
2022/09/08 04:13:05;;;;;;;;;;;;;;;21.53;78.81;97204.25;582635;243;67152;-69
2022/09/08 04:15:33;;;;;;;;;;;;;;;21.53;78.79;97205.05;582607;243;63054;-69
2022/09/08 04:18:01;;;;;;;;;;;;;;;21.53;78.74;97207.72;582674;243;64609;-70
2022/09/08 04:20:29;;;;;;;;;;;;;;;21.53;78.77;97199.70;582623;243;64798;-70
2022/09/08 04:22:57;;;;;;;;;;;;;;;21.53;78.77;97202.38;582644;243;65105;-70
2022/09/08 04:25:25;;;;;;;;;;;;;;;21.54;78.76;97205.84;582589;243;66953;-70
2022/09/08 04:27:53;;;;;;;;;;;;;;;21.53;77.83;97207.72;585536;242;65054;-70
2022/09/08 04:30:21;;;;;;;;;;;;;;;21.53;78.81;97206.93;586087;242;63042;-70
2022/09/08 04:32:49;;;;;;;;;;;;;;;21.53;78.78;97210.40;586002;242;66885;-70
2022/09/08 04:35:18;;;;;;;;;;;;;;;21.53;78.79;97209.60;586059;242;65093;-69
2022/09/08 04:37:45;;;;;;;;;;;;;;;21.54;78.79;97206.64;585989;242;63035;-70
2022/09/08 04:40:13;;;;;;;;;;;;;;;21.53;78.81;97202.38;586033;242;65323;-69
2022/09/08 04:42:42;;;;;;;;;;;;;;;21.53;78.74;97205.05;586118;242;67175;-70
2022/09/08 04:45:22;;;;;;;;;;;;;;;21.54;78.75;97206.64;586043;239;65252;-69
2022/09/08 04:47:45;;;;;;;;;;;;;;;21.54;78.73;97205.84;585405;242;67731;-69
2022/09/08 04:50:14;;;;;;;;;;;;;;;21.54;78.71;97211.20;586031;242;67104;-70
2022/09/08 04:52:46;;;;;;;;;;;;;;;21.54;78.76;97203.17;585527;239;47457;-70
2022/09/08 04:55:14;;;;;;;;;;;;;;;21.53;82.54;97206.93;585937;242;67460;-69
2022/09/08 04:57:41;;;;;;;;;;;;;;;21.54;78.82;97205.84;586020;242;67094;-70
2022/09/08 05:00:12;;;;;;;;;;;;;;;21.53;78.83;97214.95;586015;242;63173;-69
2022/09/08 05:02:38;;;;;;;;;;;;;;;21.53;78.81;97217.63;586006;242;71260;-70
2022/09/08 05:07:34;;;;;;;;;;;;;;;21.53;78.78;97217.63;579943;242;37544;-68
2022/09/08 05:10:02;;;;;;;;;;;;;;;21.53;78.78;97223.77;579782;244;65065;-68
2022/09/08 05:12:29;;;;;;;;;;;;;;;21.53;78.78;97226.44;579732;244;66894;-69
2022/09/08 05:14:57;;;;;;;;;;;;;;;21.52;78.78;97222.15;579506;242;63138;-69
2022/09/08 05:17:24;;;;;;;;;;;;;;;21.53;78.75;97236.34;579639;244;65110;-69
2022/09/08 05:19:52;;;;;;;;;;;;;;;21.53;78.75;97231.80;579786;244;66904;-69
2022/09/08 05:22:19;;;;;;;;;;;;;;;21.53;78.81;97225.65;580576;244;65074;-67
2022/09/08 05:24:47;;;;;;;;;;;;;;;21.52;78.82;97230.17;579799;244;65256;-67
2022/09/08 05:27:15;;;;;;;;;;;;;;;21.54;78.80;97227.23;579764;244;67414;-67
2022/09/08 05:29:42;;;;;;;;;;;;;;;21.53;78.79;97231.00;579720;244;63069;-67
2022/09/08 05:32:10;;;;;;;;;;;;;;;21.53;78.82;97231.80;579725;244;65378;-67
2022/09/08 05:34:37;;;;;;;;;;;;;;;21.53;78.82;97229.12;579798;244;65068;-67
2022/09/08 05:37:05;;;;;;;;;;;;;;;21.53;78.81;97222.97;579740;244;65239;-67
2022/09/08 05:39:32;;;;;;;;;;;;;;;21.53;78.82;97226.44;579741;244;67380;-67
2022/09/08 05:42:00;;;;;;;;;;;;;;;21.53;78.83;97218.42;579763;244;67011;-67
2022/09/08 05:44:27;;;;;;;;;;;;;;;21.53;78.83;97225.65;579786;244;65159;-67
2022/09/08 05:46:55;;;;;;;;;;;;;;;21.53;78.81;97226.44;579800;244;67124;-67
2022/09/08 05:49:23;;;;;;;;;;;;;;;21.53;78.82;97223.77;579769;244;64814;-68
2022/09/08 05:51:52;;;;;;;;;;;;;;;21.54;78.82;97229.91;579728;244;63152;-66
2022/09/08 05:54:25;;;;;;;;;;;;;;;21.54;78.84;97221.89;580098;238;67560;-67
2022/09/08 05:56:54;;;;;;;;;;;;;;;21.53;78.82;97221.09;579840;244;46842;-73
2022/09/08 05:59:22;;;;;;;;;;;;;;;21.52;78.82;97208.77;579768;244;63206;-73
2022/09/08 06:01:49;;;;;;;;;;;;;;;21.52;78.80;97207.98;579754;244;64979;-68
2022/09/08 06:04:18;;;;;;;;;;;;;;;21.52;78.75;97211.45;578804;242;67018;-66
2022/09/08 06:06:46;;;;;;;;;;;;;;;21.53;78.75;97209.60;587261;241;63137;-65
2022/09/08 06:09:14;;;;;;;;;;;;;;;21.53;78.74;97206.93;582880;240;67334;-67
2022/09/08 06:11:42;;;;;;;;;;;;;;;21.52;78.72;97207.98;581290;244;67097;-67
2022/09/08 06:14:10;;;;;;;;;;;;;;;21.53;78.64;97212.28;581323;244;65035;-67
2022/09/08 06:16:37;;;;;;;;;;;;;;;21.52;78.49;97203.43;581277;244;65140;-68
2022/09/08 06:19:05;;;;;;;;;;;;;;;21.50;78.21;97201.05;581306;244;67065;-67
2022/09/08 06:21:33;;;;;;;;;;;;;;;21.52;78.59;97206.10;581293;244;63030;-66
2022/09/08 06:24:02;;;;;;;;;;;;;;;21.52;78.82;97206.10;581292;244;67365;-67
2022/09/08 06:26:43;;;;;;;;;;;;;;;21.53;78.95;97201.58;581322;244;65137;-68
2022/09/08 06:29:15;;;;;;;;;;;;;;;21.53;78.91;97199.70;581258;244;63875;-67
2022/09/08 06:31:50;;;;;;;;;;;;;;;21.54;78.91;97205.84;581295;244;65119;-67
2022/09/08 06:34:20;;;;;;;;;;;;;;;21.53;78.83;97207.72;581303;244;66810;-67
2022/09/08 06:36:52;;;;;;;;;;;;;;;21.53;78.87;97213.08;581137;244;65416;-67
2022/09/08 06:39:24;;;;;;;;;;;;;;;21.54;78.94;97217.34;581103;244;67303;-67
2022/09/08 06:41:52;;;;;;;;;;;;;;;21.55;79.00;97212.78;580987;244;65348;-67
2022/09/08 06:44:22;;;;;;;;;;;;;;;21.55;79.02;97207.44;581264;244;63080;-67
2022/09/08 06:46:50;;;;;;;;;;;;;;;21.55;79.07;97215.46;581254;244;67267;-68
2022/09/08 06:49:18;;;;;;;;;;;;;;;21.55;79.03;97218.13;581195;244;64902;-67
2022/09/08 06:51:47;;;;;;;;;;;;;;;21.55;79.04;97205.56;581287;244;65041;-66
2022/09/08 06:54:28;;;;;;;;;;;;;;;21.56;78.95;97211.73;581224;244;65091;-67
2022/09/08 06:57:14;;;;;;;;;;;;;;;21.55;78.87;97208.23;581146;244;66923;-67
2022/09/08 06:59:43;;;;;;;;;;;;;;;21.56;78.87;97209.86;581301;244;65094;-68
2022/09/08 07:02:30;;;;;;;;;;;;;;;21.57;78.95;97210.66;581109;244;64793;-68
2022/09/08 07:04:59;;;;;;;;;;;;;;;21.56;78.98;97207.19;581247;244;67200;-67
2022/09/08 07:07:34;;;;;;;;;;;;;;;21.57;78.93;97213.33;581235;244;65417;-67
2022/09/08 07:10:21;;;;;;;;;;;;;;;21.57;78.91;97211.45;581126;244;67589;-67
2022/09/08 07:15:28;;;;;;;;;;;;;;;21.57;78.85;97216.80;588040;241;37510;-66
2022/09/08 07:18:06;;;;;;;;;;;;;;;21.58;78.92;97217.59;587738;241;65155;-66
2022/09/08 07:20:34;;;;;;;;;;;;;;;21.58;78.95;97213.07;588031;241;67045;-65
2022/09/08 07:23:03;;;;;;;;;;;;;;;21.58;79.05;97205.05;587930;241;63842;-66
2022/09/08 07:25:35;;;;;;;;;;;;;;;21.58;79.04;97207.72;587918;241;65084;-66
2022/09/08 07:28:04;;;;;;;;;;;;;;;21.59;79.08;97211.19;587983;241;67087;-66
2022/09/08 07:30:33;;;;;;;;;;;;;;;21.59;79.09;97211.19;587943;241;65152;-68
2022/09/08 07:33:05;;;;;;;;;;;;;;;21.59;79.04;97211.98;587979;241;67244;-65
2022/09/08 07:35:37;;;;;;;;;;;;;;;21.58;78.86;97212.24;587693;241;65006;-69
2022/09/08 07:38:06;;;;;;;;;;;;;;;21.58;78.61;97213.07;583542;241;63256;-67
2022/09/08 07:40:41;;;;;;;;;;;;;;;21.58;78.55;97217.59;587804;241;64914;-65
2022/09/08 07:43:10;;;;;;;;;;;;;;;21.58;78.35;97212.24;587881;241;67204;-66
2022/09/08 07:45:56;;;;;;;;;;;;;;;21.58;78.37;97207.72;587950;241;63097;-67
2022/09/08 07:48:25;;;;;;;;;;;;;;;21.59;78.49;97203.97;587902;241;67295;-67
2022/09/08 07:50:54;;;;;;;;;;;;;;;21.60;78.52;97204.76;587721;241;64640;-67
2022/09/08 07:53:38;;;;;;;;;;;;;;;21.60;78.58;97202.09;587703;241;62998;-73
2022/09/08 07:56:07;;;;;;;;;;;;;;;21.60;78.63;97215.45;587949;241;67256;-72
2022/09/08 07:58:36;;;;;;;;;;;;;;;21.59;78.69;97206.64;587782;241;67408;-66
2022/09/08 08:01:22;;;;;;;;;;;;;;;21.60;78.67;97215.45;587770;241;64973;-66
2022/09/08 08:03:54;;;;;;;;;;;;;;;21.61;78.60;97211.73;580645;243;67255;-66
2022/09/08 08:06:28;;;;;;;;;;;;;;;21.60;78.51;97216.25;585802;241;67056;-67
2022/09/08 08:09:07;;;;;;;;;;;;;;;21.57;75.47;97207.98;587701;241;65060;-65
2022/09/08 08:11:36;;;;;;;;;;;;;;;21.56;77.38;97209.86;582860;241;67174;-65
2022/09/08 08:14:05;;;;;;;;;;;;;;;21.54;77.30;97205.84;586980;241;64885;-64
2022/09/08 08:16:37;;;;;;;;;;;;;;;21.53;77.72;97207.72;585904;242;62940;-64
2022/09/08 08:19:09;;;;;;;;;;;;;;;21.52;77.87;97202.63;585853;242;66694;-64
2022/09/08 08:21:37;;;;;;;;;;;;;;;21.50;78.01;97202.92;586033;242;66794;-67
2022/09/08 08:24:09;;;;;;;;;;;;;;;21.49;75.79;97199.42;585829;242;63061;-66
2022/09/08 08:26:57;;;;;;;;;;;;;;;21.52;73.87;97203.43;586010;242;65167;-66
2022/09/08 08:29:26;;;;;;;;;;;;;;;21.54;77.13;97216.55;585902;242;64803;-67
2022/09/08 08:31:55;;;;;;;;;;;;;;;21.54;78.05;97213.87;585972;242;62591;-66
2022/09/08 08:34:24;;;;;;;;;;;;;;;21.53;78.36;97207.72;585900;242;67093;-66
2022/09/08 08:36:53;;;;;;;;;;;;;;;21.52;77.84;97207.98;585958;242;66851;-66
2022/09/08 08:39:22;;;;;;;;;;;;;;;21.53;77.88;97212.28;585978;242;65405;-65
2022/09/08 08:42:07;;;;;;;;;;;;;;;21.51;78.20;97207.19;586018;242;66380;-66
2022/09/08 08:44:36;;;;;;;;;;;;;;;21.51;78.38;97207.19;586030;242;67281;-67
2022/09/08 08:47:17;;;;;;;;;;;;;;;21.50;78.39;97198.37;585775;242;65077;-67
2022/09/08 08:49:52;;;;;;;;;;;;;;;21.50;78.55;97197.57;586042;242;64895;-67
2022/09/08 08:52:24;;;;;;;;;;;;;;;21.50;78.79;97194.90;585675;242;67121;-68
2022/09/08 08:54:53;;;;;;;;;;;;;;;21.49;79.18;97194.07;585960;242;63205;-67
2022/09/08 08:57:26;;;;;;;;;;;;;;;21.49;79.38;97194.07;585791;242;67284;-67
2022/09/08 09:00:00;;;;;;;;;;;;;;;21.49;79.57;97193.27;586017;242;67053;-67
2022/09/08 09:02:46;;;;;;;;;;;;;;;21.48;79.57;97189.80;585991;242;63115;-67
2022/09/08 09:05:32;;;;;;;;;;;;;;;21.48;79.56;97187.13;586040;242;65195;-66
2022/09/08 09:08:09;;;;;;;;;;;;;;;21.47;79.57;97188.22;586054;242;66688;-67
2022/09/08 09:10:38;;;;;;;;;;;;;;;21.47;79.60;97184.72;585829;242;65364;-67
2022/09/08 09:13:07;;;;;;;;;;;;;;;21.47;79.57;97179.37;585757;242;67400;-66
2022/09/08 09:15:42;;;;;;;;;;;;;;;21.47;79.60;97174.02;585799;242;67396;-66
2022/09/08 09:18:23;;;;;;;;;;;;;;;21.47;79.67;97174.02;585996;242;63003;-66
2022/09/08 09:20:52;;;;;;;;;;;;;;;21.47;79.67;97166.82;585988;242;67162;-66
2022/09/08 09:23:34;;;;;;;;;;;;;;;21.46;79.70;97167.08;585963;242;67078;-67
2022/09/08 09:26:03;;;;;;;;;;;;;;;21.46;79.66;97157.18;586047;242;61854;-67
2022/09/08 09:28:50;;;;;;;;;;;;;;;21.45;79.63;97160.94;585962;242;67133;-66
2022/09/08 09:31:19;;;;;;;;;;;;;;;21.46;79.67;97149.16;585988;242;67138;-67
2022/09/08 09:33:49;;;;;;;;;;;;;;;21.45;79.70;97147.56;585976;242;63084;-66
2022/09/08 09:36:21;;;;;;;;;;;;;;;21.46;79.74;97140.34;586001;242;66722;-65
2022/09/08 09:39:05;;;;;;;;;;;;;;;21.46;79.72;97148.36;585804;242;64701;-67
2022/09/08 09:41:37;;;;;;;;;;;;;;;21.46;79.87;97135.79;576621;233;63231;-66
2022/09/08 09:44:29;;;;;;;;;;;;;;;21.45;79.94;97130.73;579728;242;37223;-66
2022/09/08 09:46:58;;;;;;;;;;;;;;;21.45;79.95;97131.52;579540;244;64874;-67
2022/09/08 09:49:33;;;;;;;;;;;;;;;21.45;79.99;97126.18;579657;244;64004;-66
2022/09/08 09:52:12;;;;;;;;;;;;;;;21.45;80.03;97123.50;579540;244;66770;-67
2022/09/08 09:54:44;;;;;;;;;;;;;;;21.45;80.10;97123.50;579679;244;67008;-67
2022/09/08 09:57:29;;;;;;;;;;;;;;;21.46;79.58;97119.75;579749;244;63068;-67
2022/09/08 10:00:17;;;;;;;;;;;;;;;21.45;79.81;97118.16;579795;244;67036;-67
2022/09/08 10:02:46;;;;;;;;;;;;;;;21.46;79.65;97116.28;579801;244;64883;-68
2022/09/08 10:05:15;;;;;;;;;;;;;;;21.45;79.32;97120.03;579723;244;65345;-68
2022/09/08 10:08:01;;;;;;;;;;;;;;;21.45;79.24;97117.36;579817;244;65650;-67
2022/09/08 10:10:42;;;;;;;;;;;;;;;21.45;79.19;97120.03;579827;244;66863;-66
2022/09/08 10:13:15;;;;;;;;;;;;;;;21.44;79.24;97116.56;583891;242;63060;-66
2022/09/08 10:16:00;;;;;;;;;;;;;;;21.45;79.29;97114.69;585956;242;64756;-66
2022/09/08 10:18:29;;;;;;;;;;;;;;;21.44;79.21;97115.74;585966;242;67083;-68
2022/09/08 10:21:01;;;;;;;;;;;;;;;21.45;79.20;97117.36;585688;242;65291;-68
2022/09/08 10:23:46;;;;;;;;;;;;;;;21.44;79.22;97113.89;586041;242;66930;-70
2022/09/08 10:26:18;;;;;;;;;;;;;;;21.44;79.52;97111.22;586230;242;65294;-67
2022/09/08 10:28:50;;;;;;;;;;;;;;;21.44;79.53;97105.88;585998;242;63167;-69
2022/09/08 10:31:22;;;;;;;;;;;;;;;21.44;79.63;97097.85;586009;242;67033;-68
2022/09/08 10:33:59;;;;;;;;;;;;;;;21.44;79.63;97089.83;585952;242;67313;-66
2022/09/08 10:36:49;;;;;;;;;;;;;;;21.44;79.67;97091.68;585678;242;37171;-70
2022/09/08 10:39:30;;;;;;;;;;;;;;;21.44;79.76;97084.48;586001;242;67031;-70
2022/09/08 10:42:08;;;;;;;;;;;;;;;21.44;79.81;97091.68;585689;242;66699;-70
2022/09/08 10:44:42;;;;;;;;;;;;;;;21.43;79.75;97088.21;563482;251;63188;-69
2022/09/08 10:47:12;;;;;;;;;;;;;;;21.43;79.78;97082.86;586018;239;67274;-69
2022/09/08 10:49:57;;;;;;;;;;;;;;;21.44;79.75;97089.01;585980;242;66692;-69
2022/09/08 10:52:26;;;;;;;;;;;;;;;21.43;79.68;97082.86;585987;239;63172;-69
2022/09/08 10:55:02;;;;;;;;;;;;;;;21.43;79.68;97079.39;585983;242;66783;-69
2022/09/08 10:57:43;;;;;;;;;;;;;;;21.43;79.75;97076.72;585982;242;66775;-69
2022/09/08 11:00:15;;;;;;;;;;;;;;;21.42;79.66;97075.92;585573;242;65297;-69
2022/09/08 11:02:44;;;;;;;;;;;;;;;21.43;79.59;97082.86;585992;242;67228;-69
2022/09/08 11:05:29;;;;;;;;;;;;;;;21.43;79.50;97077.52;585293;242;66891;-68
2022/09/08 11:07:59;;;;;;;;;;;;;;;21.43;79.55;97066.03;586013;242;63020;-68
2022/09/08 11:10:46;;;;;;;;;;;;;;;21.43;79.42;97072.17;585987;242;66929;-68
2022/09/08 11:13:18;;;;;;;;;;;;;;;21.43;79.46;97066.03;586028;242;64666;-69
2022/09/08 11:16:04;;;;;;;;;;;;;;;21.43;79.29;97061.48;585897;242;65216;-68
2022/09/08 11:18:39;;;;;;;;;;;;;;;21.43;79.17;97058.01;585955;242;66984;-68
2022/09/08 11:21:26;;;;;;;;;;;;;;;21.42;79.12;97051.86;585990;242;64819;-68
2022/09/08 11:23:58;;;;;;;;;;;;;;;21.43;79.09;97053.45;585822;242;65434;-70
2022/09/08 11:26:30;;;;;;;;;;;;;;;21.43;79.10;97050.78;585945;242;65430;-68
2022/09/08 11:29:05;;;;;;;;;;;;;;;21.44;79.28;97051.58;585900;242;67119;-68
2022/09/08 11:31:34;;;;;;;;;;;;;;;21.43;79.17;97045.44;586030;242;63236;-68
2022/09/08 11:34:20;;;;;;;;;;;;;;;21.43;79.15;97045.44;585943;242;64683;-68
2022/09/08 11:37:05;;;;;;;;;;;;;;;21.44;79.12;97049.73;582578;242;67206;-68
2022/09/08 11:39:41;;;;;;;;;;;;;;;21.43;79.04;97042.77;582551;243;63246;-68
2022/09/08 11:45:22;;;;;;;;;;;;;;;21.43;79.13;97034.73;582138;235;37046;-67
2022/09/08 11:47:52;;;;;;;;;;;;;;;21.44;77.69;97040.88;576821;243;62672;-68
2022/09/08 11:50:35;;;;;;;;;;;;;;;21.44;78.71;97041.70;581799;243;64815;-67
2022/09/08 11:53:17;;;;;;;;;;;;;;;21.44;79.07;97044.37;579486;235;65046;-67
2022/09/08 11:55:56;;;;;;;;;;;;;;;21.44;79.16;97041.70;574539;241;65474;-68
2022/09/08 11:58:31;;;;;;;;;;;;;;;21.43;79.05;97040.09;586031;242;66830;-68
2022/09/08 12:01:12;;;;;;;;;;;;;;;21.44;79.09;97036.36;585980;242;64811;-68
2022/09/08 12:04:05;;;;;;;;;;;;;;;21.44;79.03;97028.34;585811;242;63239;-67
2022/09/08 12:06:43;;;;;;;;;;;;;;;21.43;79.00;97029.39;585809;242;50000;-68
2022/09/08 12:09:30;;;;;;;;;;;;;;;21.44;79.03;97030.19;563603;248;64875;-68
2022/09/08 12:12:02;;;;;;;;;;;;;;;21.44;79.02;97030.19;577683;233;65312;-67
2022/09/08 12:14:47;;;;;;;;;;;;;;;21.43;78.99;97032.06;572803;247;66821;-67
2022/09/08 12:19:51;;;;;;;;;;;;;;;21.43;78.92;97026.72;580765;233;49110;-67
2022/09/08 12:22:26;;;;;;;;;;;;;;;21.44;78.98;97028.34;579079;236;67297;-67
2022/09/08 12:24:55;;;;;;;;;;;;;;;21.44;78.94;97033.69;578988;245;67029;-67
2022/09/08 12:27:40;;;;;;;;;;;;;;;21.45;79.12;97037.16;578907;242;65176;-66
2022/09/08 12:30:11;;;;;;;;;;;;;;;21.44;79.17;97031.02;579010;245;67077;-68
2022/09/08 12:32:41;;;;;;;;;;;;;;;21.44;79.12;97036.36;579140;245;66791;-68
2022/09/08 12:35:14;;;;;;;;;;;;;;;21.45;79.12;97037.95;579029;245;65069;-67
2022/09/08 12:37:46;;;;;;;;;;;;;;;21.44;79.12;97030.19;579093;245;64420;-67
2022/09/08 12:40:31;;;;;;;;;;;;;;;21.44;79.04;97030.19;579009;245;66571;-67
2022/09/08 12:43:16;;;;;;;;;;;;;;;21.45;79.12;97037.16;579009;245;63931;-67
2022/09/08 12:45:46;;;;;;;;;;;;;;;21.46;79.09;97038.74;578996;245;64567;-68
2022/09/08 12:48:18;;;;;;;;;;;;;;;21.45;79.15;97031.80;579016;245;64438;-67
2022/09/08 12:50:47;;;;;;;;;;;;;;;21.44;79.16;97031.02;579066;245;65335;-66
2022/09/08 12:53:32;;;;;;;;;;;;;;;21.45;79.18;97040.62;578993;245;64579;-68
2022/09/08 12:56:13;;;;;;;;;;;;;;;21.45;79.14;97043.30;579036;243;64492;-67
2022/09/08 12:58:49;;;;;;;;;;;;;;;21.45;79.12;97037.95;572904;245;63020;-67
2022/09/08 13:01:20;;;;;;;;;;;;;;;21.45;79.20;97045.97;578137;245;64602;-67
2022/09/08 13:03:48;;;;;;;;;;;;;;;21.45;79.24;97042.50;578920;245;66627;-67
2022/09/08 13:06:26;;;;;;;;;;;;;;;21.46;79.24;97044.09;578957;245;65052;-67
2022/09/08 13:09:07;;;;;;;;;;;;;;;21.45;79.18;97048.64;578889;245;66900;-66
2022/09/08 13:11:49;;;;;;;;;;;;;;;21.45;79.18;97042.50;578872;245;65698;-68
2022/09/08 13:14:18;;;;;;;;;;;;;;;21.46;79.19;97044.88;578883;245;65352;-65
2022/09/08 13:17:03;;;;;;;;;;;;;;;21.45;79.26;97037.95;578846;245;64626;-66
2022/09/08 13:19:32;;;;;;;;;;;;;;;21.46;79.24;97028.84;578863;244;64746;-66
2022/09/08 13:22:16;;;;;;;;;;;;;;;21.46;79.15;97039.54;578724;245;65439;-66
2022/09/08 13:24:58;;;;;;;;;;;;;;;21.46;79.05;97034.19;578839;244;64809;-66
2022/09/08 13:27:33;;;;;;;;;;;;;;;21.45;79.07;97037.95;578957;245;66891;-66
2022/09/08 13:30:05;;;;;;;;;;;;;;;21.46;79.09;97038.74;577410;245;65293;-66